EDT,Max TemperatureF,Mean TemperatureF,Min TemperatureF,Max Dew PointF,MeanDew PointF,Min DewpointF,Max Humidity, Mean Humidity, Min Humidity, Max Sea Level PressureIn, Mean Sea Level PressureIn, Min Sea Level PressureIn, Max VisibilityMiles, Mean VisibilityMiles, Min VisibilityMiles, Max Wind SpeedMPH, Mean Wind SpeedMPH, Max Gust SpeedMPH,PrecipitationIn, CloudCover, Events, WindDirDegrees
2014-5-1,85,80,75,74,70,64,89,68,47,30.08,30.05,30.00,9,7,6,13,8,23,0.00,1,,128
2014-5-2,86,81,76,75,70,66,83,68,47,30.02,29.98,29.93,9,7,6,13,8,26,0.00,3,,143
2014-5-3,91,84,77,78,73,68,89,73,51,30.01,29.98,29.94,9,7,6,13,6,25,0.08,4,,186
2014-5-4,80,76,72,77,72,66,100,82,62,30.03,29.99,29.96,9,7,6,12,5,,0.01,6,Rain,287
2014-5-5,84,80,75,72,66,63,74,65,53,30.05,30.01,29.96,9,7,6,16,10,,0.00,2,,25
2014-5-6,86,76,67,70,67,64,74,64,50,30.06,30.03,29.98,9,7,6,16,7,,0.00,2,,72
2014-5-7,86,80,74,70,68,64,78,65,50,30.16,30.09,30.03,9,7,6,14,8,,0.00,1,,108
2014-5-8,86,80,75,72,69,66,83,68,53,30.20,30.16,30.12,9,7,6,17,9,,0.00,2,,95
2014-5-9,87,80,74,72,68,64,83,65,48,30.20,30.16,30.10,9,6,2,12,9,,0.00,3,,99
2014-5-10,87,81,75,72,69,64,83,68,52,30.19,30.13,30.09,9,7,6,14,10,,0.00,4,,105
2014-5-11,86,80,75,71,68,64,78,66,53,30.15,30.12,30.08,8,6,3,16,8,21,0.00,6,,96
2014-5-12,83,79,75,75,70,66,84,74,66,30.11,30.07,30.03,8,6,6,16,10,29,0.00,6,Rain,80
2014-5-13,86,80,75,77,72,68,89,78,62,30.07,30.03,29.99,9,7,6,12,10,,0.04,5,Rain-Thunderstorm,95
2014-5-14,84,78,73,77,72,68,100,81,56,30.10,30.05,30.01,8,7,6,15,7,,0.01,5,Rain-Thunderstorm,110
2014-5-15,85,80,75,76,72,36,94,77,18,30.08,30.04,30.00,8,7,6,17,10,25,0.35,5,Rain,131
2014-5-16,86,80,73,78,74,72,100,85,70,30.04,30.00,29.97,8,7,6,14,7,18,0.08,6,Rain,170
2014-5-17,79,76,73,75,71,66,100,83,69,30.06,30.02,29.98,8,6,5,18,10,30,0.00,7,Rain,26
2014-5-18,85,80,75,73,68,64,94,69,55,30.09,30.05,30.01,9,7,6,18,13,,0.00,6,Rain,49
2014-5-19,84,80,75,72,67,63,78,66,54,30.12,30.08,30.04,9,7,6,14,10,,0.00,4,,58
2014-5-20,84,78,73,72,65,53,86,63,35,30.17,30.12,30.07,9,7,6,21,11,,0.00,2,,58
2014-5-21,84,78,73,72,64,59,74,62,48,30.16,30.13,30.04,9,7,6,16,8,,0.00,1,,74
2014-5-22,84,76,69,70,66,63,88,68,54,30.14,30.11,30.06,9,7,6,12,2,,0.00,1,,49
2014-5-23,87,80,73,73,69,66,89,73,58,30.14,30.09,30.06,9,7,6,13,3,,0.00,1,,45
2014-5-24,90,80,71,76,72,66,94,75,57,30.13,30.09,30.05,9,7,6,8,3,,0.00,2,,135
2014-5-25,91,82,73,77,72,66,94,74,46,30.13,30.08,30.03,9,7,6,12,4,,0.00,4,,85
2014-5-26,86,81,76,75,73,70,89,77,59,30.16,30.13,30.09,9,7,6,12,7,,0.00,4,Rain,82
2014-5-27,89,81,73,74,72,68,94,72,52,30.16,30.11,30.06,9,7,6,12,4,,0.00,3,Thunderstorm,105
2014-5-28,89,83,77,75,72,70,89,74,58,30.11,30.06,30.01,9,7,6,12,7,,0.00,5,,124
2014-5-29,88,82,76,75,73,70,84,72,62,30.07,30.04,30.01,9,7,6,12,8,,0.00,5,Thunderstorm-Tornado,133
2014-5-30,89,82,76,77,72,66,94,71,55,30.06,30.02,29.97,9,7,6,12,5,,0.00,4,,123
2014-5-31,86,80,75,75,72,70,84,74,56,30.05,30.02,29.99,9,7,5,16,7,,0.04,4,Rain-Thunderstorm,114